createdAt,value
2017-08-31T00:01:49.096Z,18.30
2017-08-31T00:04:15.563Z,18.30
2017-08-31T00:06:42.125Z,18.20
2017-08-31T00:09:08.608Z,18.20
2017-08-31T00:11:35.056Z,18.10
2017-08-31T00:14:01.508Z,18.20
2017-08-31T00:16:27.949Z,18.20
2017-08-31T00:18:54.378Z,18.20
2017-08-31T00:21:20.862Z,18.10
2017-08-31T00:23:47.390Z,18.10
2017-08-31T00:26:13.823Z,18.00
2017-08-31T00:28:40.271Z,18.10
2017-08-31T00:31:06.715Z,18.10
2017-08-31T00:33:33.222Z,18.20
2017-08-31T00:35:59.724Z,18.20
2017-08-31T00:38:26.221Z,18.20
2017-08-31T00:40:52.664Z,18.20
2017-08-31T00:43:19.108Z,18.20
2017-08-31T00:45:45.622Z,18.10
2017-08-31T00:48:12.124Z,18.10
2017-08-31T00:50:38.568Z,18.00
2017-08-31T00:53:05.051Z,17.80
2017-08-31T00:55:31.507Z,17.80
2017-08-31T00:57:58.037Z,17.70
2017-08-31T01:00:24.576Z,17.70
2017-08-31T01:02:51.056Z,17.60
2017-08-31T01:05:17.556Z,17.80
2017-08-31T01:07:44.038Z,17.80
2017-08-31T01:10:10.484Z,17.70
2017-08-31T01:12:36.920Z,17.60
2017-08-31T01:15:03.359Z,17.70
2017-08-31T01:17:29.814Z,17.70
2017-08-31T01:19:56.303Z,17.70
2017-08-31T01:22:22.771Z,17.60
2017-08-31T01:24:49.277Z,17.80
2017-08-31T01:27:15.840Z,17.80
2017-08-31T01:29:42.397Z,17.80
2017-08-31T01:32:08.877Z,17.80
2017-08-31T01:34:35.400Z,17.80
2017-08-31T01:37:01.906Z,17.70
2017-08-31T01:39:28.410Z,17.80
2017-08-31T01:41:54.920Z,17.80
2017-08-31T01:44:21.428Z,17.80
2017-08-31T01:46:47.915Z,17.60
2017-08-31T01:49:14.408Z,17.40
2017-08-31T01:51:40.858Z,17.30
2017-08-31T01:54:07.369Z,17.20
2017-08-31T01:56:33.866Z,17.20
2017-08-31T01:59:00.354Z,17.10
2017-08-31T02:01:26.847Z,17.00
2017-08-31T02:03:53.307Z,17.00
2017-08-31T02:06:19.834Z,16.90
2017-08-31T02:08:46.285Z,16.80
2017-08-31T02:11:12.729Z,16.70
2017-08-31T02:13:39.192Z,16.70
2017-08-31T02:16:05.636Z,16.60
2017-08-31T02:18:32.105Z,16.60
2017-08-31T02:20:58.622Z,16.60
2017-08-31T02:23:25.063Z,16.50
2017-08-31T02:25:51.535Z,16.60
2017-08-31T02:28:17.991Z,16.70
2017-08-31T02:30:45.205Z,16.70
2017-08-31T02:33:11.688Z,16.70
2017-08-31T02:35:38.187Z,16.70
2017-08-31T02:38:04.652Z,16.60
2017-08-31T02:40:31.176Z,16.60
2017-08-31T02:42:57.708Z,16.60
2017-08-31T02:45:24.199Z,16.60
2017-08-31T02:47:50.657Z,16.50
2017-08-31T02:50:17.099Z,16.40
2017-08-31T02:52:43.582Z,16.30
2017-08-31T02:55:10.041Z,16.30
2017-08-31T02:57:36.480Z,16.20
2017-08-31T03:00:02.976Z,16.10
2017-08-31T03:02:29.431Z,16.10
2017-08-31T03:04:55.876Z,16.10
2017-08-31T03:07:22.392Z,16.00
2017-08-31T03:09:48.852Z,15.90
2017-08-31T03:12:15.377Z,15.90
2017-08-31T03:14:41.824Z,15.90
2017-08-31T03:17:08.279Z,16.00
2017-08-31T03:19:34.730Z,16.10
2017-08-31T03:22:01.168Z,16.20
2017-08-31T03:24:27.601Z,16.20
2017-08-31T03:26:54.057Z,16.20
2017-08-31T03:29:20.487Z,16.20
2017-08-31T03:31:46.922Z,16.30
2017-08-31T03:34:13.371Z,16.20
2017-08-31T03:36:39.824Z,16.00
2017-08-31T03:39:06.274Z,15.90
2017-08-31T03:41:32.774Z,15.70
2017-08-31T03:43:59.242Z,15.70
2017-08-31T03:46:25.722Z,15.70
2017-08-31T03:48:52.188Z,15.70
2017-08-31T03:51:18.613Z,15.70
2017-08-31T03:53:45.070Z,15.80
2017-08-31T03:56:11.511Z,15.80
2017-08-31T03:58:37.948Z,15.80
2017-08-31T04:01:04.413Z,15.80
2017-08-31T04:03:30.887Z,15.80
2017-08-31T04:05:57.338Z,15.90
2017-08-31T04:08:24.520Z,16.00
2017-08-31T04:10:50.993Z,16.00
2017-08-31T04:13:17.432Z,16.20
2017-08-31T04:15:43.903Z,16.20
2017-08-31T04:18:10.367Z,16.30
2017-08-31T04:20:36.839Z,16.30
2017-08-31T04:23:03.288Z,16.20
2017-08-31T04:25:29.788Z,16.30
2017-08-31T04:27:56.245Z,16.20
2017-08-31T04:30:22.705Z,16.20
2017-08-31T04:32:49.156Z,16.20
2017-08-31T04:35:15.604Z,16.10
2017-08-31T04:37:42.068Z,16.00
2017-08-31T04:40:08.527Z,15.90
2017-08-31T04:42:34.980Z,16.00
2017-08-31T04:45:01.592Z,16.10
2017-08-31T04:47:28.082Z,16.20
2017-08-31T04:49:54.557Z,16.30
2017-08-31T04:52:21.011Z,16.50
2017-08-31T04:54:47.461Z,16.50
2017-08-31T04:57:13.928Z,16.40
2017-08-31T04:59:40.422Z,16.40
2017-08-31T05:02:06.941Z,16.50
2017-08-31T05:04:34.357Z,16.60
2017-08-31T05:07:00.910Z,16.60
2017-08-31T05:09:27.407Z,16.50
2017-08-31T05:11:53.888Z,16.40
2017-08-31T05:14:20.380Z,16.60
2017-08-31T05:16:46.893Z,16.60
2017-08-31T05:19:13.375Z,16.80
2017-08-31T05:21:39.892Z,17.00
2017-08-31T05:24:06.652Z,17.10
2017-08-31T05:26:33.150Z,17.20
2017-08-31T05:28:59.654Z,17.40
2017-08-31T05:31:26.154Z,17.60
2017-08-31T05:33:52.623Z,17.70
2017-08-31T05:36:19.087Z,17.80
2017-08-31T05:38:45.587Z,18.00
2017-08-31T05:41:12.082Z,18.00
2017-08-31T05:43:38.567Z,18.10
2017-08-31T05:46:05.816Z,18.20
2017-08-31T05:48:32.312Z,18.20
2017-08-31T05:50:58.809Z,18.30
2017-08-31T05:53:25.291Z,18.20
2017-08-31T05:55:51.796Z,18.10
2017-08-31T05:58:18.315Z,18.30
2017-08-31T06:00:44.794Z,18.40
2017-08-31T06:03:11.295Z,18.50
2017-08-31T06:05:37.786Z,18.70
2017-08-31T06:08:04.269Z,18.90
2017-08-31T06:10:30.777Z,19.20
2017-08-31T06:12:57.293Z,19.30
2017-08-31T06:15:23.761Z,19.60
2017-08-31T06:17:50.199Z,19.70
2017-08-31T06:20:16.650Z,19.90
2017-08-31T06:22:43.111Z,20.00
2017-08-31T06:25:09.555Z,20.10
2017-08-31T06:27:36.823Z,20.70
2017-08-31T06:30:03.279Z,20.70
2017-08-31T06:32:29.789Z,21.00
2017-08-31T06:34:56.315Z,21.20
2017-08-31T06:37:22.779Z,21.50
2017-08-31T06:39:49.229Z,21.60
2017-08-31T06:42:15.675Z,22.00
2017-08-31T06:44:42.128Z,22.20
2017-08-31T06:47:08.670Z,22.30
2017-08-31T06:49:35.119Z,22.40
2017-08-31T06:52:01.564Z,22.50
2017-08-31T06:54:28.025Z,22.60
2017-08-31T06:56:54.489Z,22.80
2017-08-31T06:59:20.952Z,22.90
2017-08-31T07:01:47.409Z,23.10
2017-08-31T07:04:13.830Z,23.40
2017-08-31T07:06:40.244Z,23.40
2017-08-31T07:09:06.709Z,23.50
2017-08-31T07:11:33.157Z,23.60
2017-08-31T07:13:59.634Z,23.70
2017-08-31T07:16:26.113Z,23.80
2017-08-31T07:18:52.585Z,23.90
2017-08-31T07:21:19.097Z,24.10
2017-08-31T07:23:45.530Z,24.50
2017-08-31T07:26:12.023Z,24.60
2017-08-31T07:28:38.531Z,24.80
2017-08-31T07:31:05.000Z,24.90
2017-08-31T07:33:31.471Z,24.70
2017-08-31T07:35:57.949Z,24.90
2017-08-31T07:38:24.419Z,25.00
2017-08-31T07:40:50.911Z,25.10
2017-08-31T07:43:17.355Z,25.20
2017-08-31T07:45:43.806Z,25.30
2017-08-31T07:48:10.246Z,25.40
2017-08-31T07:50:36.702Z,25.50
2017-08-31T07:53:03.190Z,25.40
2017-08-31T07:55:29.657Z,25.30
2017-08-31T07:57:56.102Z,25.00
2017-08-31T08:00:22.539Z,24.80
2017-08-31T08:02:49.001Z,24.80
2017-08-31T08:05:15.482Z,24.90
2017-08-31T08:07:41.958Z,24.90
2017-08-31T08:10:08.397Z,25.00
2017-08-31T08:12:34.833Z,25.00
2017-08-31T08:15:01.277Z,25.00
2017-08-31T08:17:27.747Z,25.00
2017-08-31T08:19:54.204Z,24.90
2017-08-31T08:22:20.714Z,25.20
2017-08-31T08:24:47.200Z,25.40
2017-08-31T08:27:13.646Z,25.40
2017-08-31T08:29:40.084Z,25.30
2017-08-31T08:32:06.565Z,25.60
2017-08-31T08:34:33.015Z,25.80
2017-08-31T08:36:59.432Z,25.60
2017-08-31T08:39:25.908Z,25.60
2017-08-31T08:41:52.407Z,25.70
2017-08-31T08:44:18.823Z,26.00
2017-08-31T08:46:45.279Z,26.20
2017-08-31T08:49:11.790Z,26.50
2017-08-31T08:51:38.273Z,26.60
2017-08-31T08:54:04.744Z,26.70
2017-08-31T08:56:31.952Z,27.10
2017-08-31T08:58:58.430Z,27.10
2017-08-31T09:01:24.860Z,26.80
2017-08-31T09:03:51.321Z,26.40
2017-08-31T09:06:17.781Z,26.60
2017-08-31T09:08:44.216Z,26.70
2017-08-31T09:11:10.699Z,26.80
2017-08-31T09:13:37.150Z,26.80
2017-08-31T09:16:03.631Z,26.70
2017-08-31T09:18:30.097Z,27.00
2017-08-31T09:20:57.303Z,27.10
2017-08-31T09:23:23.765Z,27.10
2017-08-31T09:25:50.225Z,27.10
2017-08-31T09:28:17.404Z,27.50
2017-08-31T09:30:43.878Z,27.50
2017-08-31T09:33:10.329Z,27.40
2017-08-31T09:35:36.815Z,27.60
2017-08-31T09:38:03.353Z,27.60
2017-08-31T09:40:29.835Z,27.70
2017-08-31T09:42:56.283Z,28.10
2017-08-31T09:45:22.748Z,28.10
2017-08-31T09:47:49.185Z,28.30
2017-08-31T09:50:15.637Z,28.40
2017-08-31T09:52:42.067Z,28.60
2017-08-31T09:55:08.577Z,28.80
2017-08-31T09:57:35.017Z,29.00
2017-08-31T10:00:01.442Z,29.10
2017-08-31T10:02:27.899Z,29.30
2017-08-31T10:04:54.363Z,29.30
2017-08-31T10:07:20.821Z,29.30
2017-08-31T10:09:47.278Z,29.50
2017-08-31T10:12:13.749Z,29.40
2017-08-31T10:14:40.220Z,29.30
2017-08-31T10:32:08.223Z,29.00
2017-08-31T10:34:34.724Z,29.10
2017-08-31T10:37:01.215Z,29.00
2017-08-31T10:39:27.709Z,29.20
2017-08-31T10:41:54.225Z,29.40
2017-08-31T10:44:20.728Z,29.40
2017-08-31T10:46:47.227Z,29.40
2017-08-31T10:49:13.726Z,29.40
2017-08-31T10:51:40.185Z,29.50
2017-08-31T10:54:06.693Z,29.80
2017-08-31T10:56:33.201Z,30.00
2017-08-31T10:58:59.704Z,30.20
2017-08-31T11:01:26.203Z,30.10
2017-08-31T11:03:52.704Z,30.10
2017-08-31T11:06:19.238Z,30.20
2017-08-31T11:08:45.744Z,30.20
2017-08-31T11:11:12.234Z,30.30
2017-08-31T11:13:38.702Z,30.30
2017-08-31T11:16:05.222Z,30.40
2017-08-31T11:18:31.753Z,30.60
2017-08-31T11:20:58.252Z,30.60
2017-08-31T11:23:24.730Z,30.70
2017-08-31T11:25:51.190Z,31.10
2017-08-31T11:28:17.835Z,31.10
2017-08-31T11:30:44.284Z,31.10
2017-08-31T11:33:10.807Z,31.10
2017-08-31T11:35:37.273Z,31.30
2017-08-31T11:38:03.669Z,31.50
2017-08-31T11:40:30.129Z,31.60
2017-08-31T11:42:56.642Z,31.30
2017-08-31T11:45:23.106Z,31.20
2017-08-31T11:47:49.544Z,31.20
2017-08-31T11:50:16.026Z,31.50
2017-08-31T11:52:42.539Z,31.30
2017-08-31T11:55:08.990Z,31.30
2017-08-31T11:57:35.454Z,31.10
2017-08-31T12:00:01.912Z,31.30
2017-08-31T12:02:28.354Z,31.50
2017-08-31T12:04:54.807Z,31.40
2017-08-31T12:07:21.264Z,31.40
2017-08-31T12:09:47.764Z,31.40
2017-08-31T12:12:14.234Z,31.50
2017-08-31T12:14:40.716Z,31.20
2017-08-31T12:17:07.159Z,31.10
2017-08-31T12:19:33.617Z,31.30
2017-08-31T12:22:00.615Z,31.40
2017-08-31T12:24:27.056Z,31.50
2017-08-31T12:26:53.511Z,31.60
2017-08-31T12:29:19.949Z,31.50
2017-08-31T12:31:46.409Z,31.80
2017-08-31T12:34:12.871Z,32.00
2017-08-31T12:36:39.332Z,32.10
2017-08-31T12:39:05.747Z,32.20
2017-08-31T12:41:32.209Z,31.80
2017-08-31T12:43:58.653Z,32.10
2017-08-31T12:46:25.106Z,32.40
2017-08-31T12:48:52.404Z,32.30
2017-08-31T12:51:18.917Z,32.40
2017-08-31T12:53:45.360Z,32.30
2017-08-31T12:56:11.812Z,32.40
2017-08-31T12:58:38.251Z,32.40
2017-08-31T13:01:04.690Z,32.50
2017-08-31T13:03:31.139Z,32.60
2017-08-31T13:05:57.579Z,32.80
2017-08-31T13:08:24.020Z,32.60
2017-08-31T13:10:50.476Z,32.60
2017-08-31T13:13:16.951Z,32.50
2017-08-31T13:15:43.408Z,32.50
2017-08-31T13:18:09.862Z,32.30
2017-08-31T13:20:36.375Z,32.60
2017-08-31T13:23:02.813Z,32.20
2017-08-31T13:25:29.267Z,32.20
2017-08-31T13:27:55.744Z,32.10
2017-08-31T13:30:22.181Z,32.20
2017-08-31T13:32:48.630Z,32.30
2017-08-31T13:35:15.067Z,32.20
2017-08-31T13:37:41.516Z,32.10
2017-08-31T13:40:07.970Z,32.20
2017-08-31T13:42:34.392Z,32.30
2017-08-31T13:45:01.008Z,32.50
2017-08-31T13:47:27.802Z,32.50
2017-08-31T13:49:54.261Z,32.50
2017-08-31T13:52:21.078Z,32.40
2017-08-31T13:54:47.729Z,32.40
2017-08-31T13:57:14.452Z,32.40
2017-08-31T13:59:41.206Z,32.40
2017-08-31T14:02:07.641Z,32.40
2017-08-31T14:04:34.071Z,32.40
2017-08-31T14:07:00.873Z,32.20
2017-08-31T14:09:27.321Z,32.20
2017-08-31T14:11:53.764Z,32.20
2017-08-31T14:14:20.511Z,32.20
2017-08-31T14:16:47.370Z,32.30
2017-08-31T14:19:13.861Z,32.20
2017-08-31T14:21:40.746Z,32.00
2017-08-31T14:24:07.592Z,31.90
2017-08-31T14:26:34.051Z,32.00
2017-08-31T14:29:00.860Z,32.00
2017-08-31T14:31:27.304Z,32.00
2017-08-31T14:33:53.761Z,31.90
2017-08-31T14:36:20.382Z,31.80
2017-08-31T14:38:47.203Z,31.60
2017-08-31T14:41:13.627Z,31.40
2017-08-31T14:43:40.280Z,31.40
2017-08-31T14:46:07.026Z,31.50
2017-08-31T14:48:33.780Z,31.70
2017-08-31T14:51:00.288Z,31.80
2017-08-31T14:53:27.071Z,31.60
2017-08-31T14:55:53.508Z,31.50
2017-08-31T14:58:20.301Z,31.40
2017-08-31T15:00:47.168Z,31.40
2017-08-31T15:03:13.584Z,31.60
2017-08-31T15:05:40.000Z,31.80
2017-08-31T15:08:06.765Z,31.90
2017-08-31T15:10:33.188Z,31.80
2017-08-31T15:12:59.842Z,31.70
2017-08-31T15:15:26.475Z,31.70
2017-08-31T15:17:52.926Z,31.70
2017-08-31T15:20:19.645Z,31.70
2017-08-31T15:22:46.242Z,31.70
2017-08-31T15:25:12.696Z,31.40
2017-08-31T15:27:39.361Z,31.40
2017-08-31T15:30:05.795Z,31.50
2017-08-31T15:32:32.631Z,31.40
2017-08-31T15:34:59.267Z,31.20
2017-08-31T15:37:25.710Z,30.90
2017-08-31T15:39:52.345Z,31.00
2017-08-31T15:42:18.973Z,31.00
2017-08-31T15:44:45.712Z,31.00
2017-08-31T15:47:12.556Z,31.00
2017-08-31T15:49:39.199Z,30.80
2017-08-31T15:52:05.826Z,30.80
2017-08-31T15:54:33.184Z,30.70
2017-08-31T15:56:59.654Z,30.70
2017-08-31T15:59:26.259Z,30.70
2017-08-31T16:01:52.905Z,30.60
2017-08-31T16:04:19.656Z,30.60
2017-08-31T16:06:46.385Z,30.60
2017-08-31T16:09:12.832Z,30.70
2017-08-31T16:11:39.451Z,30.60
2017-08-31T16:14:06.092Z,30.50
2017-08-31T16:16:39.627Z,30.50
2017-08-31T16:19:06.332Z,30.50
2017-08-31T16:21:33.068Z,30.40
2017-08-31T16:23:59.675Z,30.40
2017-08-31T16:26:26.104Z,30.40
2017-08-31T16:28:52.531Z,30.30
2017-08-31T16:31:19.328Z,30.20
2017-08-31T16:33:46.161Z,30.10
2017-08-31T16:36:12.785Z,30.00
2017-08-31T16:38:39.447Z,29.90
2017-08-31T16:41:05.905Z,29.80
2017-08-31T16:43:32.360Z,29.70
2017-08-31T16:45:59.030Z,29.60
2017-08-31T16:48:25.523Z,29.50
2017-08-31T16:50:52.224Z,29.40
2017-08-31T16:53:18.685Z,29.20
2017-08-31T16:55:45.141Z,29.00
2017-08-31T16:58:11.827Z,28.80
2017-08-31T17:00:38.566Z,28.50
2017-08-31T17:03:05.020Z,28.30
2017-08-31T17:05:31.640Z,28.00
2017-08-31T17:07:58.288Z,27.90
2017-08-31T17:10:24.734Z,27.80
2017-08-31T17:12:51.198Z,27.60
2017-08-31T17:15:17.856Z,27.40
2017-08-31T17:17:44.625Z,27.20
2017-08-31T17:20:11.365Z,27.00
2017-08-31T17:22:38.105Z,26.90
2017-08-31T17:25:04.578Z,26.80
2017-08-31T17:27:31.281Z,26.90
2017-08-31T17:29:58.060Z,26.70
2017-08-31T17:32:24.507Z,26.60
2017-08-31T17:34:50.941Z,26.50
2017-08-31T17:37:17.634Z,26.40
2017-08-31T17:39:44.471Z,26.20
2017-08-31T17:42:10.950Z,26.10
2017-08-31T17:44:37.643Z,26.00
2017-08-31T17:47:04.383Z,26.10
2017-08-31T17:49:31.028Z,26.10
2017-08-31T17:51:57.482Z,26.10
2017-08-31T17:54:24.201Z,26.10
2017-08-31T17:56:50.663Z,26.00
2017-08-31T17:59:17.103Z,26.00
2017-08-31T18:01:43.801Z,26.00
2017-08-31T18:04:10.454Z,25.80
2017-08-31T18:06:36.927Z,25.70
2017-08-31T18:09:03.453Z,25.40
2017-08-31T18:11:30.150Z,25.30
2017-08-31T18:13:56.796Z,25.40
2017-08-31T18:16:23.276Z,25.40
2017-08-31T18:18:49.963Z,25.40
2017-08-31T18:21:16.722Z,25.40
2017-08-31T18:23:43.185Z,25.40
2017-08-31T18:26:09.883Z,25.40
2017-08-31T18:28:36.741Z,25.30
2017-08-31T18:31:03.181Z,25.10
2017-08-31T18:33:29.888Z,25.10
2017-08-31T18:35:56.636Z,25.00
2017-08-31T18:38:23.118Z,24.90
2017-08-31T18:40:49.807Z,24.90
2017-08-31T18:43:16.284Z,24.80
2017-08-31T18:45:43.084Z,24.70
2017-08-31T18:48:09.827Z,24.70
2017-08-31T18:50:36.318Z,24.70
2017-08-31T18:53:03.110Z,24.70
2017-08-31T18:55:29.845Z,24.60
2017-08-31T18:57:56.480Z,24.60
2017-08-31T19:00:23.108Z,24.60
2017-08-31T19:02:49.552Z,24.60
2017-08-31T19:05:16.201Z,24.70
2017-08-31T19:07:42.938Z,24.60
2017-08-31T19:10:09.406Z,24.60
2017-08-31T19:12:35.852Z,24.60
2017-08-31T19:15:02.637Z,24.60
2017-08-31T19:17:29.076Z,24.60
2017-08-31T19:19:55.704Z,24.60
2017-08-31T19:22:22.152Z,24.60
2017-08-31T19:24:48.886Z,24.80
2017-08-31T19:27:15.323Z,24.90
2017-08-31T19:29:42.158Z,24.80
2017-08-31T19:32:08.907Z,24.60
2017-08-31T19:34:35.373Z,24.40
2017-08-31T19:37:01.845Z,24.20
2017-08-31T19:39:28.523Z,24.00
2017-08-31T19:41:55.249Z,23.80
2017-08-31T19:44:21.987Z,23.60
2017-08-31T19:46:48.432Z,23.50
2017-08-31T19:49:15.153Z,23.50
2017-08-31T19:51:41.798Z,23.50
2017-08-31T19:54:08.262Z,23.60
2017-08-31T19:56:35.590Z,23.50
2017-08-31T19:59:02.020Z,23.50
2017-08-31T20:01:28.673Z,23.50
2017-08-31T20:03:55.117Z,23.50
2017-08-31T20:06:21.936Z,23.30
2017-08-31T20:08:48.374Z,23.30
2017-08-31T20:11:15.009Z,23.20
2017-08-31T20:13:41.456Z,23.30
2017-08-31T20:16:08.140Z,23.30
2017-08-31T20:18:34.607Z,23.20
2017-08-31T20:21:01.687Z,23.20
2017-08-31T20:23:28.502Z,23.20
2017-08-31T20:25:54.963Z,23.40
2017-08-31T20:28:21.685Z,23.30
2017-08-31T20:30:48.156Z,23.20
2017-08-31T20:33:14.621Z,23.10
2017-08-31T20:35:41.380Z,23.20
2017-08-31T20:38:08.024Z,23.00
2017-08-31T20:40:34.483Z,22.80
2017-08-31T20:43:01.200Z,22.60
2017-08-31T20:45:27.838Z,22.50
2017-08-31T20:47:54.287Z,22.30
2017-08-31T20:50:21.015Z,22.20
2017-08-31T20:52:47.450Z,22.00
2017-08-31T20:55:13.877Z,21.90
2017-08-31T20:57:40.726Z,21.90
2017-08-31T21:00:07.356Z,22.00
2017-08-31T21:02:33.990Z,21.90
2017-08-31T21:05:00.855Z,22.00
2017-08-31T21:07:27.295Z,21.90
2017-08-31T21:09:53.888Z,21.90
2017-08-31T21:12:20.341Z,21.80
2017-08-31T21:14:47.194Z,21.80
2017-08-31T21:17:13.913Z,21.80
2017-08-31T21:19:40.670Z,21.70
2017-08-31T21:22:07.302Z,21.70
2017-08-31T21:24:33.744Z,21.80
2017-08-31T21:27:00.386Z,21.80
2017-08-31T21:29:27.157Z,21.70
2017-08-31T21:31:53.849Z,21.70
2017-08-31T21:34:20.290Z,21.70
2017-08-31T21:36:47.029Z,21.50
2017-08-31T21:39:13.769Z,21.50
2017-08-31T21:41:40.505Z,21.40
2017-08-31T21:44:07.248Z,21.30
2017-08-31T21:46:33.889Z,21.30
2017-08-31T21:49:00.526Z,21.40
2017-08-31T21:51:27.043Z,21.30
2017-08-31T21:53:53.772Z,21.30
2017-08-31T21:56:20.195Z,21.20
2017-08-31T21:58:46.977Z,21.30
2017-08-31T22:01:13.717Z,21.30
2017-08-31T22:03:40.353Z,21.40
2017-08-31T22:06:06.996Z,21.50
2017-08-31T22:08:33.452Z,21.50
2017-08-31T22:11:00.164Z,21.50
2017-08-31T22:13:26.813Z,21.30
2017-08-31T22:15:53.632Z,21.30
2017-08-31T22:18:20.291Z,21.20
2017-08-31T22:20:46.916Z,21.10
2017-08-31T22:23:13.370Z,21.20
2017-08-31T22:25:40.200Z,21.20
2017-08-31T22:28:06.835Z,21.30
2017-08-31T22:30:33.282Z,21.40
2017-08-31T22:33:00.012Z,21.30
2017-08-31T22:35:26.761Z,21.10
2017-08-31T22:37:53.377Z,21.00
2017-08-31T22:40:19.833Z,20.90
2017-08-31T22:42:46.561Z,20.70
2017-08-31T22:45:13.303Z,20.70
2017-08-31T22:47:39.755Z,20.80
2017-08-31T22:50:06.471Z,20.80
2017-08-31T22:52:33.096Z,20.90
2017-08-31T22:55:11.675Z,20.80
2017-08-31T22:57:50.472Z,20.80
2017-08-31T23:00:16.923Z,20.80
2017-08-31T23:02:43.361Z,20.70
2017-08-31T23:05:10.058Z,20.60
2017-08-31T23:07:36.807Z,20.60
2017-08-31T23:10:03.243Z,20.60
2017-08-31T23:12:29.883Z,20.50
2017-08-31T23:14:56.571Z,20.40
2017-08-31T23:17:23.014Z,20.40
2017-08-31T23:19:49.678Z,20.50
2017-08-31T23:22:16.320Z,20.60
2017-08-31T23:24:42.754Z,20.70
2017-08-31T23:27:09.206Z,20.70
2017-08-31T23:29:35.808Z,20.70
2017-08-31T23:32:02.608Z,20.70
2017-08-31T23:34:29.055Z,20.70
2017-08-31T23:36:55.840Z,20.70
2017-08-31T23:39:22.675Z,20.80
2017-08-31T23:41:49.386Z,20.80
2017-08-31T23:44:15.832Z,20.90
2017-08-31T23:46:42.591Z,20.80
2017-08-31T23:49:09.337Z,20.80
2017-08-31T23:51:36.223Z,20.70
2017-08-31T23:54:02.679Z,20.60
2017-08-31T23:56:29.456Z,20.50
2017-08-31T23:58:55.899Z,20.40
